sensor_id;sensor_type;location;lat;lon;timestamp;temperature;humidity
26575;DHT22;67165;50.256;10.978;2024-02-15T00:01:01;8.80;98.00
26575;DHT22;67165;50.256;10.978;2024-02-15T00:03:27;8.80;98.00
26575;DHT22;67165;50.256;10.978;2024-02-15T00:05:52;8.80;98.00
26575;DHT22;67165;50.256;10.978;2024-02-15T00:08:18;8.80;98.00
26575;DHT22;67165;50.256;10.978;2024-02-15T00:10:46;8.80;98.00
26575;DHT22;67165;50.256;10.978;2024-02-15T00:13:13;8.80;98.00
26575;DHT22;67165;50.256;10.978;2024-02-15T00:15:39;8.80;98.00
26575;DHT22;67165;50.256;10.978;2024-02-15T00:18:05;8.80;98.00
26575;DHT22;67165;50.256;10.978;2024-02-15T00:20:31;8.80;98.00
26575;DHT22;67165;50.256;10.978;2024-02-15T00:22:59;8.80;98.00
26575;DHT22;67165;50.256;10.978;2024-02-15T00:25:25;8.80;98.00
26575;DHT22;67165;50.256;10.978;2024-02-15T00:27:51;8.80;98.00
26575;DHT22;67165;50.256;10.978;2024-02-15T00:30:17;8.80;98.00
26575;DHT22;67165;50.256;10.978;2024-02-15T00:32:43;8.90;98.00
26575;DHT22;67165;50.256;10.978;2024-02-15T00:35:10;8.90;98.00
26575;DHT22;67165;50.256;10.978;2024-02-15T00:37:36;8.90;98.00
26575;DHT22;67165;50.256;10.978;2024-02-15T00:40:02;8.90;98.00
26575;DHT22;67165;50.256;10.978;2024-02-15T00:42:31;8.90;98.00
26575;DHT22;67165;50.256;10.978;2024-02-15T00:44:59;8.90;98.00
26575;DHT22;67165;50.256;10.978;2024-02-15T00:47:25;8.90;98.00
26575;DHT22;67165;50.256;10.978;2024-02-15T00:49:51;8.90;98.00
26575;DHT22;67165;50.256;10.978;2024-02-15T00:52:17;8.90;98.00
26575;DHT22;67165;50.256;10.978;2024-02-15T00:54:46;8.90;98.00
26575;DHT22;67165;50.256;10.978;2024-02-15T00:57:12;8.90;98.00
26575;DHT22;67165;50.256;10.978;2024-02-15T00:59:38;8.90;98.00
26575;DHT22;67165;50.256;10.978;2024-02-15T01:02:03;8.90;98.00
26575;DHT22;67165;50.256;10.978;2024-02-15T01:04:30;8.90;98.00
26575;DHT22;67165;50.256;10.978;2024-02-15T01:06:56;8.90;98.00
26575;DHT22;67165;50.256;10.978;2024-02-15T01:09:22;8.90;98.00
26575;DHT22;67165;50.256;10.978;2024-02-15T01:11:48;8.90;98.00
26575;DHT22;67165;50.256;10.978;2024-02-15T01:14:14;8.90;98.00
26575;DHT22;67165;50.256;10.978;2024-02-15T01:16:41;9.00;98.00
26575;DHT22;67165;50.256;10.978;2024-02-15T01:19:07;9.00;98.00
26575;DHT22;67165;50.256;10.978;2024-02-15T01:21:33;9.00;98.00
26575;DHT22;67165;50.256;10.978;2024-02-15T01:23:59;9.00;98.00
26575;DHT22;67165;50.256;10.978;2024-02-15T01:26:26;9.00;98.00
26575;DHT22;67165;50.256;10.978;2024-02-15T01:28:52;9.00;98.00
26575;DHT22;67165;50.256;10.978;2024-02-15T01:31:18;9.00;98.00
26575;DHT22;67165;50.256;10.978;2024-02-15T01:33:44;9.00;98.00
26575;DHT22;67165;50.256;10.978;2024-02-15T01:36:17;9.00;98.00
26575;DHT22;67165;50.256;10.978;2024-02-15T01:38:43;9.00;98.00
26575;DHT22;67165;50.256;10.978;2024-02-15T01:41:09;9.00;98.00
26575;DHT22;67165;50.256;10.978;2024-02-15T01:43:35;9.00;98.00
26575;DHT22;67165;50.256;10.978;2024-02-15T01:46:07;9.00;98.00
26575;DHT22;67165;50.256;10.978;2024-02-15T01:48:35;9.00;98.00
26575;DHT22;67165;50.256;10.978;2024-02-15T01:51:02;9.00;98.00
26575;DHT22;67165;50.256;10.978;2024-02-15T01:53:29;9.00;98.00
26575;DHT22;67165;50.256;10.978;2024-02-15T01:55:56;9.00;98.00
26575;DHT22;67165;50.256;10.978;2024-02-15T01:58:26;9.00;98.00
26575;DHT22;67165;50.256;10.978;2024-02-15T02:00:53;9.00;98.00
26575;DHT22;67165;50.256;10.978;2024-02-15T02:03:21;9.00;98.00
26575;DHT22;67165;50.256;10.978;2024-02-15T02:05:47;9.00;98.00
26575;DHT22;67165;50.256;10.978;2024-02-15T02:08:13;9.10;98.00
26575;DHT22;67165;50.256;10.978;2024-02-15T02:10:39;9.00;98.00
26575;DHT22;67165;50.256;10.978;2024-02-15T02:13:05;9.10;98.00
26575;DHT22;67165;50.256;10.978;2024-02-15T02:15:34;9.10;98.00
26575;DHT22;67165;50.256;10.978;2024-02-15T02:18:02;9.10;98.00
26575;DHT22;67165;50.256;10.978;2024-02-15T02:20:30;9.10;98.00
26575;DHT22;67165;50.256;10.978;2024-02-15T02:25:35;9.10;98.00
26575;DHT22;67165;50.256;10.978;2024-02-15T02:28:01;9.00;98.00
26575;DHT22;67165;50.256;10.978;2024-02-15T02:30:27;9.00;98.00
26575;DHT22;67165;50.256;10.978;2024-02-15T02:32:56;9.10;98.00
26575;DHT22;67165;50.256;10.978;2024-02-15T02:35:22;9.10;98.00
26575;DHT22;67165;50.256;10.978;2024-02-15T02:37:48;9.10;98.00
26575;DHT22;67165;50.256;10.978;2024-02-15T02:40:14;9.20;98.00
26575;DHT22;67165;50.256;10.978;2024-02-15T02:42:54;9.10;98.00
26575;DHT22;67165;50.256;10.978;2024-02-15T02:45:26;9.20;98.00
26575;DHT22;67165;50.256;10.978;2024-02-15T02:47:52;9.10;98.00
26575;DHT22;67165;50.256;10.978;2024-02-15T02:50:19;9.20;98.00
26575;DHT22;67165;50.256;10.978;2024-02-15T02:52:44;9.10;98.00
26575;DHT22;67165;50.256;10.978;2024-02-15T02:55:11;9.10;98.00
26575;DHT22;67165;50.256;10.978;2024-02-15T02:57:39;9.10;98.00
26575;DHT22;67165;50.256;10.978;2024-02-15T03:00:07;9.20;98.00
26575;DHT22;67165;50.256;10.978;2024-02-15T03:02:37;9.20;98.00
26575;DHT22;67165;50.256;10.978;2024-02-15T03:05:04;9.20;98.00
26575;DHT22;67165;50.256;10.978;2024-02-15T03:07:35;9.10;98.00
26575;DHT22;67165;50.256;10.978;2024-02-15T03:10:02;9.10;98.00
26575;DHT22;67165;50.256;10.978;2024-02-15T03:12:30;9.10;98.00
26575;DHT22;67165;50.256;10.978;2024-02-15T03:14:56;9.20;98.00
26575;DHT22;67165;50.256;10.978;2024-02-15T03:17:23;9.20;98.00
26575;DHT22;67165;50.256;10.978;2024-02-15T03:19:49;9.20;98.00
26575;DHT22;67165;50.256;10.978;2024-02-15T03:22:15;9.20;98.00
26575;DHT22;67165;50.256;10.978;2024-02-15T03:24:41;9.20;98.00
26575;DHT22;67165;50.256;10.978;2024-02-15T03:27:08;9.20;98.00
26575;DHT22;67165;50.256;10.978;2024-02-15T03:29:35;9.20;98.00
26575;DHT22;67165;50.256;10.978;2024-02-15T03:32:04;9.20;98.00
26575;DHT22;67165;50.256;10.978;2024-02-15T03:34:31;9.10;98.00
26575;DHT22;67165;50.256;10.978;2024-02-15T03:36:57;9.10;98.00
26575;DHT22;67165;50.256;10.978;2024-02-15T03:39:24;9.20;98.00
26575;DHT22;67165;50.256;10.978;2024-02-15T03:41:50;9.20;98.00
26575;DHT22;67165;50.256;10.978;2024-02-15T03:44:19;9.20;98.00
26575;DHT22;67165;50.256;10.978;2024-02-15T03:46:45;9.20;98.00
26575;DHT22;67165;50.256;10.978;2024-02-15T03:49:19;9.20;98.00
26575;DHT22;67165;50.256;10.978;2024-02-15T03:51:45;9.20;98.00
26575;DHT22;67165;50.256;10.978;2024-02-15T03:54:12;9.20;98.00
26575;DHT22;67165;50.256;10.978;2024-02-15T03:56:47;9.10;98.00
26575;DHT22;67165;50.256;10.978;2024-02-15T03:59:13;9.10;98.00
26575;DHT22;67165;50.256;10.978;2024-02-15T04:01:38;9.20;98.00
26575;DHT22;67165;50.256;10.978;2024-02-15T04:04:05;9.20;98.00
26575;DHT22;67165;50.256;10.978;2024-02-15T04:06:30;9.20;98.00
26575;DHT22;67165;50.256;10.978;2024-02-15T04:08:59;9.20;98.00
26575;DHT22;67165;50.256;10.978;2024-02-15T04:11:25;9.30;98.00
26575;DHT22;67165;50.256;10.978;2024-02-15T04:13:51;9.30;98.00
26575;DHT22;67165;50.256;10.978;2024-02-15T04:16:17;9.20;98.00
26575;DHT22;67165;50.256;10.978;2024-02-15T04:18:43;9.20;98.00
26575;DHT22;67165;50.256;10.978;2024-02-15T04:21:10;9.20;98.00
26575;DHT22;67165;50.256;10.978;2024-02-15T04:23:36;9.20;98.00
26575;DHT22;67165;50.256;10.978;2024-02-15T04:26:02;9.30;98.00
26575;DHT22;67165;50.256;10.978;2024-02-15T04:28:28;9.20;98.00
26575;DHT22;67165;50.256;10.978;2024-02-15T04:30:54;9.20;98.00
26575;DHT22;67165;50.256;10.978;2024-02-15T04:33:20;9.20;98.00
26575;DHT22;67165;50.256;10.978;2024-02-15T04:35:46;9.20;98.00
26575;DHT22;67165;50.256;10.978;2024-02-15T04:38:14;9.20;98.00
26575;DHT22;67165;50.256;10.978;2024-02-15T04:40:40;9.20;98.00
26575;DHT22;67165;50.256;10.978;2024-02-15T04:43:06;9.20;98.00
26575;DHT22;67165;50.256;10.978;2024-02-15T04:45:34;9.30;98.00
26575;DHT22;67165;50.256;10.978;2024-02-15T04:48:00;9.20;98.00
26575;DHT22;67165;50.256;10.978;2024-02-15T04:50:28;9.20;98.00
26575;DHT22;67165;50.256;10.978;2024-02-15T04:52:55;9.20;98.00
26575;DHT22;67165;50.256;10.978;2024-02-15T04:55:21;9.20;98.00
26575;DHT22;67165;50.256;10.978;2024-02-15T04:57:49;9.20;98.00
26575;DHT22;67165;50.256;10.978;2024-02-15T05:00:15;9.20;98.00
26575;DHT22;67165;50.256;10.978;2024-02-15T05:02:42;9.20;98.00
26575;DHT22;67165;50.256;10.978;2024-02-15T05:05:09;9.20;98.00
26575;DHT22;67165;50.256;10.978;2024-02-15T05:07:35;9.30;98.00
26575;DHT22;67165;50.256;10.978;2024-02-15T05:10:07;9.20;98.00
26575;DHT22;67165;50.256;10.978;2024-02-15T05:12:34;9.20;98.00
26575;DHT22;67165;50.256;10.978;2024-02-15T05:15:00;9.20;98.00
26575;DHT22;67165;50.256;10.978;2024-02-15T05:17:26;9.20;98.00
26575;DHT22;67165;50.256;10.978;2024-02-15T05:19:54;9.20;98.00
26575;DHT22;67165;50.256;10.978;2024-02-15T05:22:19;9.20;98.00
26575;DHT22;67165;50.256;10.978;2024-02-15T05:24:45;9.30;98.00
26575;DHT22;67165;50.256;10.978;2024-02-15T05:27:11;9.20;98.00
26575;DHT22;67165;50.256;10.978;2024-02-15T05:29:38;9.20;98.00
26575;DHT22;67165;50.256;10.978;2024-02-15T05:32:05;9.20;98.00
26575;DHT22;67165;50.256;10.978;2024-02-15T05:34:31;9.20;98.00
26575;DHT22;67165;50.256;10.978;2024-02-15T05:36:57;9.20;98.00
26575;DHT22;67165;50.256;10.978;2024-02-15T05:39:22;9.20;98.00
26575;DHT22;67165;50.256;10.978;2024-02-15T05:41:48;9.20;98.00
26575;DHT22;67165;50.256;10.978;2024-02-15T05:44:14;9.20;98.00
26575;DHT22;67165;50.256;10.978;2024-02-15T05:46:44;9.30;98.00
26575;DHT22;67165;50.256;10.978;2024-02-15T05:49:10;9.30;98.00
26575;DHT22;67165;50.256;10.978;2024-02-15T05:51:42;9.30;98.00
26575;DHT22;67165;50.256;10.978;2024-02-15T05:54:07;9.20;98.00
26575;DHT22;67165;50.256;10.978;2024-02-15T05:56:33;9.20;98.00
26575;DHT22;67165;50.256;10.978;2024-02-15T05:58:59;9.20;98.00
26575;DHT22;67165;50.256;10.978;2024-02-15T06:01:27;9.20;98.00
26575;DHT22;67165;50.256;10.978;2024-02-15T06:03:55;9.20;98.00
26575;DHT22;67165;50.256;10.978;2024-02-15T06:06:21;9.20;98.00
26575;DHT22;67165;50.256;10.978;2024-02-15T06:08:48;9.20;98.00
26575;DHT22;67165;50.256;10.978;2024-02-15T06:11:18;9.20;98.00
26575;DHT22;67165;50.256;10.978;2024-02-15T06:13:45;9.20;98.00
26575;DHT22;67165;50.256;10.978;2024-02-15T06:16:11;9.20;98.00
26575;DHT22;67165;50.256;10.978;2024-02-15T06:18:37;9.20;98.00
26575;DHT22;67165;50.256;10.978;2024-02-15T06:21:03;9.20;98.00
26575;DHT22;67165;50.256;10.978;2024-02-15T06:23:31;9.20;98.00
26575;DHT22;67165;50.256;10.978;2024-02-15T06:25:58;9.20;98.00
26575;DHT22;67165;50.256;10.978;2024-02-15T06:28:26;9.20;98.00
26575;DHT22;67165;50.256;10.978;2024-02-15T06:31:11;9.20;98.00
26575;DHT22;67165;50.256;10.978;2024-02-15T06:33:55;9.20;98.00
26575;DHT22;67165;50.256;10.978;2024-02-15T06:36:47;9.20;98.00
26575;DHT22;67165;50.256;10.978;2024-02-15T06:39:32;9.20;98.00
26575;DHT22;67165;50.256;10.978;2024-02-15T06:42:04;9.20;98.00
26575;DHT22;67165;50.256;10.978;2024-02-15T06:44:30;9.20;98.00
26575;DHT22;67165;50.256;10.978;2024-02-15T06:46:56;9.20;98.00
26575;DHT22;67165;50.256;10.978;2024-02-15T06:49:23;9.20;98.00
26575;DHT22;67165;50.256;10.978;2024-02-15T06:51:50;9.30;98.00
26575;DHT22;67165;50.256;10.978;2024-02-15T06:54:16;9.30;98.00
26575;DHT22;67165;50.256;10.978;2024-02-15T06:56:45;9.30;98.00
26575;DHT22;67165;50.256;10.978;2024-02-15T06:59:12;9.30;98.00
26575;DHT22;67165;50.256;10.978;2024-02-15T07:01:42;9.30;98.00
26575;DHT22;67165;50.256;10.978;2024-02-15T07:04:08;9.30;98.00
26575;DHT22;67165;50.256;10.978;2024-02-15T07:06:38;9.40;98.00
26575;DHT22;67165;50.256;10.978;2024-02-15T07:09:04;9.30;98.00
26575;DHT22;67165;50.256;10.978;2024-02-15T07:11:34;9.40;98.00
26575;DHT22;67165;50.256;10.978;2024-02-15T07:14:01;9.40;98.00
26575;DHT22;67165;50.256;10.978;2024-02-15T07:16:26;9.40;98.00
26575;DHT22;67165;50.256;10.978;2024-02-15T07:18:52;9.30;98.00
26575;DHT22;67165;50.256;10.978;2024-02-15T07:21:19;9.30;98.00
26575;DHT22;67165;50.256;10.978;2024-02-15T07:23:51;9.30;98.00
26575;DHT22;67165;50.256;10.978;2024-02-15T07:26:17;9.30;98.00
26575;DHT22;67165;50.256;10.978;2024-02-15T07:28:45;9.30;98.00
26575;DHT22;67165;50.256;10.978;2024-02-15T07:31:13;9.40;98.00
26575;DHT22;67165;50.256;10.978;2024-02-15T07:33:40;9.40;98.00
26575;DHT22;67165;50.256;10.978;2024-02-15T07:36:08;9.30;98.00
26575;DHT22;67165;50.256;10.978;2024-02-15T07:38:34;9.40;98.00
26575;DHT22;67165;50.256;10.978;2024-02-15T07:41:00;9.40;98.00
26575;DHT22;67165;50.256;10.978;2024-02-15T07:43:26;9.50;98.00
26575;DHT22;67165;50.256;10.978;2024-02-15T07:45:53;9.50;98.00
26575;DHT22;67165;50.256;10.978;2024-02-15T07:48:18;9.50;98.00
26575;DHT22;67165;50.256;10.978;2024-02-15T07:50:44;9.50;98.00
26575;DHT22;67165;50.256;10.978;2024-02-15T07:53:10;9.50;98.00
26575;DHT22;67165;50.256;10.978;2024-02-15T07:55:37;9.50;98.00
26575;DHT22;67165;50.256;10.978;2024-02-15T07:58:04;9.50;98.00
26575;DHT22;67165;50.256;10.978;2024-02-15T08:00:30;9.60;98.00
26575;DHT22;67165;50.256;10.978;2024-02-15T08:02:56;9.60;98.00
26575;DHT22;67165;50.256;10.978;2024-02-15T08:05:24;9.60;98.00
26575;DHT22;67165;50.256;10.978;2024-02-15T08:07:50;9.60;98.00
26575;DHT22;67165;50.256;10.978;2024-02-15T08:10:16;9.60;98.00
26575;DHT22;67165;50.256;10.978;2024-02-15T08:12:46;9.80;98.00
26575;DHT22;67165;50.256;10.978;2024-02-15T08:15:14;9.80;98.00
26575;DHT22;67165;50.256;10.978;2024-02-15T08:17:44;9.90;98.00
26575;DHT22;67165;50.256;10.978;2024-02-15T08:20:14;9.90;98.00
26575;DHT22;67165;50.256;10.978;2024-02-15T08:22:41;10.00;98.00
26575;DHT22;67165;50.256;10.978;2024-02-15T08:25:13;10.10;98.00
26575;DHT22;67165;50.256;10.978;2024-02-15T08:27:42;10.20;98.00
26575;DHT22;67165;50.256;10.978;2024-02-15T08:30:12;10.20;98.00
26575;DHT22;67165;50.256;10.978;2024-02-15T08:32:39;10.30;98.00
26575;DHT22;67165;50.256;10.978;2024-02-15T08:35:06;10.30;98.00
26575;DHT22;67165;50.256;10.978;2024-02-15T08:37:32;10.30;98.00
26575;DHT22;67165;50.256;10.978;2024-02-15T08:40:01;10.30;98.00
26575;DHT22;67165;50.256;10.978;2024-02-15T08:42:27;10.30;98.00
26575;DHT22;67165;50.256;10.978;2024-02-15T08:44:53;10.20;98.00
26575;DHT22;67165;50.256;10.978;2024-02-15T08:47:18;10.20;98.00
26575;DHT22;67165;50.256;10.978;2024-02-15T08:49:44;10.30;98.00
26575;DHT22;67165;50.256;10.978;2024-02-15T08:52:10;10.30;98.00
26575;DHT22;67165;50.256;10.978;2024-02-15T08:54:35;10.30;98.00
26575;DHT22;67165;50.256;10.978;2024-02-15T08:57:04;10.40;98.00
26575;DHT22;67165;50.256;10.978;2024-02-15T08:59:31;10.40;98.00
26575;DHT22;67165;50.256;10.978;2024-02-15T09:01:56;10.50;98.00
26575;DHT22;67165;50.256;10.978;2024-02-15T09:04:23;10.50;98.00
26575;DHT22;67165;50.256;10.978;2024-02-15T09:06:52;10.50;98.00
26575;DHT22;67165;50.256;10.978;2024-02-15T09:09:17;10.50;98.00
26575;DHT22;67165;50.256;10.978;2024-02-15T09:11:43;10.60;98.00
26575;DHT22;67165;50.256;10.978;2024-02-15T09:14:09;10.60;98.00
26575;DHT22;67165;50.256;10.978;2024-02-15T09:16:38;10.70;98.00
26575;DHT22;67165;50.256;10.978;2024-02-15T09:19:05;10.60;98.00
26575;DHT22;67165;50.256;10.978;2024-02-15T09:21:32;10.60;98.00
26575;DHT22;67165;50.256;10.978;2024-02-15T09:23:59;10.70;98.00
26575;DHT22;67165;50.256;10.978;2024-02-15T09:26:25;10.70;98.00
26575;DHT22;67165;50.256;10.978;2024-02-15T09:28:53;10.80;98.00
26575;DHT22;67165;50.256;10.978;2024-02-15T09:31:19;10.70;98.00
26575;DHT22;67165;50.256;10.978;2024-02-15T09:33:45;10.70;98.00
26575;DHT22;67165;50.256;10.978;2024-02-15T09:36:11;10.80;98.00
26575;DHT22;67165;50.256;10.978;2024-02-15T09:38:37;11.00;98.00
26575;DHT22;67165;50.256;10.978;2024-02-15T09:41:03;11.10;98.00
26575;DHT22;67165;50.256;10.978;2024-02-15T09:43:34;11.20;98.00
26575;DHT22;67165;50.256;10.978;2024-02-15T09:45:59;11.20;98.00
26575;DHT22;67165;50.256;10.978;2024-02-15T09:48:29;11.20;98.00
26575;DHT22;67165;50.256;10.978;2024-02-15T09:50:57;11.30;98.00
26575;DHT22;67165;50.256;10.978;2024-02-15T09:53:24;11.30;98.00
26575;DHT22;67165;50.256;10.978;2024-02-15T09:55:54;11.30;98.00
26575;DHT22;67165;50.256;10.978;2024-02-15T09:58:21;11.30;98.00
26575;DHT22;67165;50.256;10.978;2024-02-15T10:00:49;11.30;98.00
26575;DHT22;67165;50.256;10.978;2024-02-15T10:03:18;11.40;98.00
26575;DHT22;67165;50.256;10.978;2024-02-15T10:05:48;11.40;98.00
26575;DHT22;67165;50.256;10.978;2024-02-15T10:08:15;11.50;98.00
26575;DHT22;67165;50.256;10.978;2024-02-15T10:10:41;11.60;98.00
26575;DHT22;67165;50.256;10.978;2024-02-15T10:13:13;11.70;98.00
26575;DHT22;67165;50.256;10.978;2024-02-15T10:15:39;11.80;98.00
26575;DHT22;67165;50.256;10.978;2024-02-15T10:18:10;11.90;98.00
26575;DHT22;67165;50.256;10.978;2024-02-15T10:20:41;12.00;98.00
26575;DHT22;67165;50.256;10.978;2024-02-15T10:23:14;12.00;98.00
26575;DHT22;67165;50.256;10.978;2024-02-15T10:25:43;12.10;98.00
26575;DHT22;67165;50.256;10.978;2024-02-15T10:28:10;12.00;98.00
26575;DHT22;67165;50.256;10.978;2024-02-15T10:33:03;12.00;98.00
26575;DHT22;67165;50.256;10.978;2024-02-15T10:35:30;12.20;98.00
26575;DHT22;67165;50.256;10.978;2024-02-15T10:38:07;12.30;98.00
26575;DHT22;67165;50.256;10.978;2024-02-15T10:40:37;12.30;98.00
26575;DHT22;67165;50.256;10.978;2024-02-15T10:43:03;12.30;98.00
26575;DHT22;67165;50.256;10.978;2024-02-15T10:45:31;12.20;98.00
26575;DHT22;67165;50.256;10.978;2024-02-15T10:47:57;12.20;98.00
26575;DHT22;67165;50.256;10.978;2024-02-15T10:50:24;12.30;98.00
26575;DHT22;67165;50.256;10.978;2024-02-15T10:52:59;12.30;98.00
26575;DHT22;67165;50.256;10.978;2024-02-15T10:58:18;12.30;98.00
26575;DHT22;67165;50.256;10.978;2024-02-15T11:00:46;12.30;98.00
26575;DHT22;67165;50.256;10.978;2024-02-15T11:03:23;12.30;98.00
26575;DHT22;67165;50.256;10.978;2024-02-15T11:05:51;12.20;98.00
26575;DHT22;67165;50.256;10.978;2024-02-15T11:08:18;12.10;98.00
26575;DHT22;67165;50.256;10.978;2024-02-15T11:10:44;12.20;98.00
26575;DHT22;67165;50.256;10.978;2024-02-15T11:13:10;12.10;98.00
26575;DHT22;67165;50.256;10.978;2024-02-15T11:18:11;12.00;98.00
26575;DHT22;67165;50.256;10.978;2024-02-15T11:23:04;12.00;98.00
26575;DHT22;67165;50.256;10.978;2024-02-15T11:25:37;12.00;98.00
26575;DHT22;67165;50.256;10.978;2024-02-15T11:30:55;12.00;98.00
26575;DHT22;67165;50.256;10.978;2024-02-15T11:38:31;12.20;98.00
26575;DHT22;67165;50.256;10.978;2024-02-15T11:46:20;12.50;98.00
26575;DHT22;67165;50.256;10.978;2024-02-15T11:48:51;12.60;98.00
26575;DHT22;67165;50.256;10.978;2024-02-15T11:54:08;12.80;98.00
26575;DHT22;67165;50.256;10.978;2024-02-15T11:59:19;12.70;98.00
26575;DHT22;67165;50.256;10.978;2024-02-15T12:01:58;12.70;98.00
26575;DHT22;67165;50.256;10.978;2024-02-15T12:04:43;12.80;98.00
26575;DHT22;67165;50.256;10.978;2024-02-15T12:07:28;12.80;98.00
26575;DHT22;67165;50.256;10.978;2024-02-15T12:10:19;12.70;98.00
26575;DHT22;67165;50.256;10.978;2024-02-15T12:13:03;12.80;98.00
26575;DHT22;67165;50.256;10.978;2024-02-15T12:16:00;12.80;98.00
26575;DHT22;67165;50.256;10.978;2024-02-15T12:18:45;12.80;98.00
26575;DHT22;67165;50.256;10.978;2024-02-15T12:21:21;12.80;98.00
26575;DHT22;67165;50.256;10.978;2024-02-15T12:23:49;12.70;98.00
26575;DHT22;67165;50.256;10.978;2024-02-15T12:26:20;12.80;98.00
26575;DHT22;67165;50.256;10.978;2024-02-15T12:28:52;12.90;98.00
26575;DHT22;67165;50.256;10.978;2024-02-15T12:31:22;13.00;98.00
26575;DHT22;67165;50.256;10.978;2024-02-15T12:34:05;13.00;98.00
26575;DHT22;67165;50.256;10.978;2024-02-15T12:36:34;13.20;98.00
26575;DHT22;67165;50.256;10.978;2024-02-15T12:39:05;13.10;98.00
26575;DHT22;67165;50.256;10.978;2024-02-15T12:41:40;13.20;98.00
26575;DHT22;67165;50.256;10.978;2024-02-15T12:44:07;13.20;98.00
26575;DHT22;67165;50.256;10.978;2024-02-15T12:46:39;13.20;98.00
26575;DHT22;67165;50.256;10.978;2024-02-15T12:51:34;13.20;98.00
26575;DHT22;67165;50.256;10.978;2024-02-15T12:54:09;13.30;98.00
26575;DHT22;67165;50.256;10.978;2024-02-15T12:56:39;13.40;98.00
26575;DHT22;67165;50.256;10.978;2024-02-15T12:59:05;13.40;98.00
26575;DHT22;67165;50.256;10.978;2024-02-15T13:01:32;13.50;98.00
26575;DHT22;67165;50.256;10.978;2024-02-15T13:03:59;13.40;98.00
26575;DHT22;67165;50.256;10.978;2024-02-15T13:06:26;13.40;98.00
26575;DHT22;67165;50.256;10.978;2024-02-15T13:08:52;13.40;98.00
26575;DHT22;67165;50.256;10.978;2024-02-15T13:11:18;13.30;98.00
26575;DHT22;67165;50.256;10.978;2024-02-15T13:13:43;13.40;98.00
26575;DHT22;67165;50.256;10.978;2024-02-15T13:16:09;13.30;98.00
26575;DHT22;67165;50.256;10.978;2024-02-15T13:18:35;13.30;98.00
26575;DHT22;67165;50.256;10.978;2024-02-15T13:21:00;13.40;98.00
26575;DHT22;67165;50.256;10.978;2024-02-15T13:23:26;13.40;98.00
26575;DHT22;67165;50.256;10.978;2024-02-15T13:25:53;13.40;98.00
26575;DHT22;67165;50.256;10.978;2024-02-15T13:28:19;13.30;98.00
26575;DHT22;67165;50.256;10.978;2024-02-15T13:30:45;13.30;98.00
26575;DHT22;67165;50.256;10.978;2024-02-15T13:33:11;13.50;98.00
26575;DHT22;67165;50.256;10.978;2024-02-15T13:35:38;13.40;98.00
26575;DHT22;67165;50.256;10.978;2024-02-15T13:38:04;13.40;98.00
26575;DHT22;67165;50.256;10.978;2024-02-15T13:40:30;13.40;98.00
26575;DHT22;67165;50.256;10.978;2024-02-15T13:43:00;13.40;98.00
26575;DHT22;67165;50.256;10.978;2024-02-15T13:45:30;13.40;98.00
26575;DHT22;67165;50.256;10.978;2024-02-15T13:47:59;13.40;98.00
26575;DHT22;67165;50.256;10.978;2024-02-15T13:50:28;13.40;98.00
26575;DHT22;67165;50.256;10.978;2024-02-15T13:52:53;13.40;98.00
26575;DHT22;67165;50.256;10.978;2024-02-15T13:55:19;13.50;98.00
26575;DHT22;67165;50.256;10.978;2024-02-15T13:57:48;13.50;98.00
26575;DHT22;67165;50.256;10.978;2024-02-15T14:00:17;13.50;98.00
26575;DHT22;67165;50.256;10.978;2024-02-15T14:02:59;13.60;98.00
26575;DHT22;67165;50.256;10.978;2024-02-15T14:05:29;13.50;98.00
26575;DHT22;67165;50.256;10.978;2024-02-15T14:07:56;13.40;98.00
26575;DHT22;67165;50.256;10.978;2024-02-15T14:10:23;13.50;98.00
26575;DHT22;67165;50.256;10.978;2024-02-15T14:12:50;13.50;98.00
26575;DHT22;67165;50.256;10.978;2024-02-15T14:15:33;13.40;98.00
26575;DHT22;67165;50.256;10.978;2024-02-15T14:18:04;13.20;98.00
26575;DHT22;67165;50.256;10.978;2024-02-15T14:20:29;13.20;98.00
26575;DHT22;67165;50.256;10.978;2024-02-15T14:22:55;13.20;98.00
26575;DHT22;67165;50.256;10.978;2024-02-15T14:25:27;13.20;98.00
26575;DHT22;67165;50.256;10.978;2024-02-15T14:27:56;13.20;98.00
26575;DHT22;67165;50.256;10.978;2024-02-15T14:30:22;13.10;98.00
26575;DHT22;67165;50.256;10.978;2024-02-15T14:33:06;13.10;98.00
26575;DHT22;67165;50.256;10.978;2024-02-15T14:35:38;13.00;98.00
26575;DHT22;67165;50.256;10.978;2024-02-15T14:38:09;13.00;98.00
26575;DHT22;67165;50.256;10.978;2024-02-15T14:40:38;13.00;98.00
26575;DHT22;67165;50.256;10.978;2024-02-15T14:43:05;13.00;98.00
26575;DHT22;67165;50.256;10.978;2024-02-15T14:45:34;12.90;98.00
26575;DHT22;67165;50.256;10.978;2024-02-15T14:48:02;12.80;98.00
26575;DHT22;67165;50.256;10.978;2024-02-15T14:50:30;12.90;98.00
26575;DHT22;67165;50.256;10.978;2024-02-15T14:52:56;12.90;98.00
26575;DHT22;67165;50.256;10.978;2024-02-15T14:55:22;12.90;98.00
26575;DHT22;67165;50.256;10.978;2024-02-15T14:57:48;12.90;98.00
26575;DHT22;67165;50.256;10.978;2024-02-15T15:00:14;12.90;98.00
26575;DHT22;67165;50.256;10.978;2024-02-15T15:02:46;12.90;98.00
26575;DHT22;67165;50.256;10.978;2024-02-15T15:05:12;12.90;98.00
26575;DHT22;67165;50.256;10.978;2024-02-15T15:07:57;12.90;98.00
26575;DHT22;67165;50.256;10.978;2024-02-15T15:10:41;12.80;98.00
26575;DHT22;67165;50.256;10.978;2024-02-15T15:13:26;12.80;98.00
26575;DHT22;67165;50.256;10.978;2024-02-15T15:15:52;12.70;98.00
26575;DHT22;67165;50.256;10.978;2024-02-15T15:18:17;12.70;98.00
26575;DHT22;67165;50.256;10.978;2024-02-15T15:20:44;12.70;98.00
26575;DHT22;67165;50.256;10.978;2024-02-15T15:23:10;12.60;98.00
26575;DHT22;67165;50.256;10.978;2024-02-15T15:25:36;12.60;98.00
26575;DHT22;67165;50.256;10.978;2024-02-15T15:28:05;12.50;98.00
26575;DHT22;67165;50.256;10.978;2024-02-15T15:30:30;12.50;98.00
26575;DHT22;67165;50.256;10.978;2024-02-15T15:32:57;12.50;98.00
26575;DHT22;67165;50.256;10.978;2024-02-15T15:35:23;12.40;98.00
26575;DHT22;67165;50.256;10.978;2024-02-15T15:37:49;12.40;98.00
26575;DHT22;67165;50.256;10.978;2024-02-15T15:40:18;12.40;98.00
26575;DHT22;67165;50.256;10.978;2024-02-15T15:42:45;12.30;98.00
26575;DHT22;67165;50.256;10.978;2024-02-15T15:45:11;12.30;98.00
26575;DHT22;67165;50.256;10.978;2024-02-15T15:47:38;12.30;98.00
26575;DHT22;67165;50.256;10.978;2024-02-15T15:50:08;12.20;98.00
26575;DHT22;67165;50.256;10.978;2024-02-15T15:52:36;12.10;98.00
26575;DHT22;67165;50.256;10.978;2024-02-15T15:55:03;12.10;98.00
26575;DHT22;67165;50.256;10.978;2024-02-15T15:57:29;12.00;98.00
26575;DHT22;67165;50.256;10.978;2024-02-15T15:59:57;12.00;98.00
26575;DHT22;67165;50.256;10.978;2024-02-15T16:02:22;11.90;98.00
26575;DHT22;67165;50.256;10.978;2024-02-15T16:04:48;11.80;98.00